createdAt,value
2018-09-23T00:01:46.166Z,13.10
2018-09-23T00:04:18.921Z,13.10
2018-09-23T00:06:48.790Z,13.10
2018-09-23T00:09:21.578Z,13.10
2018-09-23T00:11:50.883Z,13.10
2018-09-23T00:14:23.258Z,13.10
2018-09-23T00:16:52.815Z,13.00
2018-09-23T00:19:25.677Z,13.00
2018-09-23T00:21:55.074Z,13.00
2018-09-23T00:24:28.845Z,13.10
2018-09-23T00:26:58.239Z,13.10
2018-09-23T00:29:36.085Z,13.00
2018-09-23T00:32:06.006Z,13.00
2018-09-23T00:34:35.259Z,13.00
2018-09-23T00:37:04.516Z,13.10
2018-09-23T00:39:35.899Z,13.10
2018-09-23T00:42:05.486Z,13.00
2018-09-23T00:44:42.987Z,13.10
2018-09-23T00:47:12.280Z,13.10
2018-09-23T00:49:42.743Z,13.00
2018-09-23T00:52:12.345Z,13.10
2018-09-23T00:54:43.785Z,13.00
2018-09-23T00:57:13.056Z,13.10
2018-09-23T00:59:46.669Z,13.00
2018-09-23T01:02:17.186Z,13.10
2018-09-23T01:04:49.326Z,13.10
2018-09-23T01:07:18.583Z,13.10
2018-09-23T01:09:52.241Z,13.10
2018-09-23T01:12:21.547Z,13.10
2018-09-23T01:14:54.914Z,13.10
2018-09-23T01:17:24.266Z,13.10
2018-09-23T01:19:58.160Z,13.10
2018-09-23T01:22:28.005Z,13.00
2018-09-23T01:25:00.926Z,13.10
2018-09-23T01:27:30.265Z,13.10
2018-09-23T01:30:06.905Z,13.10
2018-09-23T01:32:48.307Z,13.10
2018-09-23T01:35:17.862Z,13.10
2018-09-23T01:37:47.108Z,13.10
2018-09-23T01:40:16.474Z,13.10
2018-09-23T01:42:45.937Z,13.10
2018-09-23T01:45:15.413Z,13.10
2018-09-23T01:47:44.867Z,13.10
2018-09-23T01:50:16.126Z,13.10
2018-09-23T01:52:45.394Z,13.00
2018-09-23T01:55:18.821Z,13.10
2018-09-23T01:57:48.574Z,13.10
2018-09-23T02:00:21.858Z,13.10
2018-09-23T02:02:51.278Z,13.10
2018-09-23T02:05:25.906Z,13.20
2018-09-23T02:07:55.084Z,13.10
2018-09-23T02:10:25.009Z,13.20
2018-09-23T02:12:54.385Z,13.10
2018-09-23T02:15:27.992Z,13.10
2018-09-23T02:17:57.486Z,13.10
2018-09-23T02:20:30.336Z,13.10
2018-09-23T02:22:59.783Z,13.10
2018-09-23T02:25:33.252Z,13.10
2018-09-23T02:28:02.628Z,13.00
2018-09-23T02:30:35.695Z,13.00
2018-09-23T02:33:05.149Z,13.00
2018-09-23T02:38:11.334Z,13.10
2018-09-23T02:40:41.346Z,13.20
2018-09-23T02:43:10.855Z,13.10
2018-09-23T02:45:47.350Z,13.10
2018-09-23T02:48:16.493Z,13.10
2018-09-23T02:50:46.208Z,13.10
2018-09-23T02:53:15.333Z,13.10
2018-09-23T02:55:48.800Z,13.10
2018-09-23T02:58:17.977Z,13.10
2018-09-23T03:00:51.995Z,13.10
2018-09-23T03:03:21.562Z,13.20
2018-09-23T03:05:54.299Z,13.20
2018-09-23T03:08:23.497Z,13.10
2018-09-23T03:10:57.702Z,13.20
2018-09-23T03:13:27.013Z,13.20
2018-09-23T03:16:00.334Z,13.20
2018-09-23T03:18:29.529Z,13.20
2018-09-23T03:21:03.551Z,13.20
2018-09-23T03:23:33.041Z,13.20
2018-09-23T03:26:06.343Z,13.20
2018-09-23T03:28:35.499Z,13.20
2018-09-23T03:31:09.266Z,13.20
2018-09-23T03:33:38.506Z,13.20
2018-09-23T03:36:13.445Z,13.10
2018-09-23T03:38:43.986Z,13.10
2018-09-23T03:41:16.363Z,13.10
2018-09-23T03:43:45.613Z,13.10
2018-09-23T03:46:18.719Z,13.10
2018-09-23T03:48:48.195Z,13.20
2018-09-23T03:51:20.940Z,13.20
2018-09-23T03:53:50.438Z,13.20
2018-09-23T03:56:23.478Z,13.20
2018-09-23T03:58:52.690Z,13.20
2018-09-23T04:01:25.611Z,13.10
2018-09-23T04:03:54.863Z,13.10
2018-09-23T04:06:28.352Z,13.10
2018-09-23T04:08:57.824Z,13.10
2018-09-23T04:11:30.583Z,13.10
2018-09-23T04:13:59.875Z,13.10
2018-09-23T04:16:33.508Z,13.20
2018-09-23T04:19:02.697Z,13.20
2018-09-23T04:21:35.911Z,13.20
2018-09-23T04:24:05.906Z,13.20
2018-09-23T04:26:38.554Z,13.20
2018-09-23T04:29:07.810Z,13.20
2018-09-23T04:31:40.120Z,13.20
2018-09-23T04:34:09.317Z,13.30
2018-09-23T04:36:44.285Z,13.30
2018-09-23T04:39:13.782Z,13.30
2018-09-23T04:41:47.028Z,13.30
2018-09-23T04:44:16.310Z,13.30
2018-09-23T04:46:49.737Z,13.30
2018-09-23T04:49:18.935Z,13.30
2018-09-23T04:51:53.205Z,13.30
2018-09-23T04:54:22.394Z,13.30
2018-09-23T04:56:55.901Z,13.20
2018-09-23T04:59:25.109Z,13.20
2018-09-23T05:01:58.519Z,13.30
2018-09-23T05:04:28.030Z,13.20
2018-09-23T05:07:00.050Z,13.20
2018-09-23T05:09:29.570Z,13.30
2018-09-23T05:12:06.210Z,13.30
2018-09-23T05:14:35.811Z,13.30
2018-09-23T05:17:06.734Z,13.20
2018-09-23T05:19:36.153Z,13.30
2018-09-23T05:22:10.679Z,13.30
2018-09-23T05:24:40.117Z,13.30
2018-09-23T05:27:15.345Z,13.30
2018-09-23T05:29:45.006Z,13.30
2018-09-23T05:32:17.213Z,13.40
2018-09-23T05:34:46.399Z,13.30
2018-09-23T05:37:19.233Z,13.30
2018-09-23T05:39:48.383Z,13.30
2018-09-23T05:42:21.502Z,13.30
2018-09-23T05:44:51.005Z,13.30
2018-09-23T05:47:23.117Z,13.40
2018-09-23T05:49:52.579Z,13.30
2018-09-23T05:52:28.804Z,13.30
2018-09-23T05:54:58.342Z,13.40
2018-09-23T05:57:31.156Z,13.40
2018-09-23T06:00:00.997Z,13.30
2018-09-23T06:02:33.988Z,13.40
2018-09-23T06:05:03.963Z,13.30
2018-09-23T06:07:36.888Z,13.40
2018-09-23T06:10:06.295Z,13.40
2018-09-23T06:12:43.565Z,13.40
2018-09-23T06:15:12.892Z,13.40
2018-09-23T06:17:42.926Z,13.40
2018-09-23T06:20:12.918Z,13.50
2018-09-23T06:22:44.182Z,13.50
2018-09-23T06:25:13.444Z,13.50
2018-09-23T06:27:48.403Z,13.50
2018-09-23T06:30:18.449Z,13.50
2018-09-23T06:32:51.051Z,13.40
2018-09-23T06:35:20.568Z,13.40
2018-09-23T06:37:53.553Z,13.50
2018-09-23T06:40:22.873Z,13.50
2018-09-23T06:42:59.524Z,13.50
2018-09-23T06:45:29.371Z,13.50
2018-09-23T06:47:59.937Z,13.60
2018-09-23T06:50:29.120Z,13.70
2018-09-23T06:53:02.248Z,13.60
2018-09-23T06:55:32.053Z,13.70
2018-09-23T06:58:05.766Z,13.60
2018-09-23T07:00:34.978Z,13.60
2018-09-23T07:03:08.667Z,13.60
2018-09-23T07:05:37.865Z,13.70
2018-09-23T07:08:11.071Z,13.70
2018-09-23T07:10:40.552Z,13.70
2018-09-23T07:13:15.788Z,13.80
2018-09-23T07:15:46.628Z,13.80
2018-09-23T07:18:19.143Z,13.80
2018-09-23T07:20:48.853Z,13.90
2018-09-23T07:23:20.387Z,13.90
2018-09-23T07:25:50.120Z,13.90
2018-09-23T07:28:22.861Z,13.90
2018-09-23T07:30:52.890Z,14.00
2018-09-23T07:33:26.254Z,14.00
2018-09-23T07:35:56.000Z,13.90
2018-09-23T07:38:30.956Z,14.00
2018-09-23T07:41:00.384Z,14.00
2018-09-23T07:43:33.301Z,13.90
2018-09-23T07:46:03.134Z,14.00
2018-09-23T07:48:35.742Z,14.00
2018-09-23T07:51:05.584Z,14.00
2018-09-23T07:53:38.385Z,14.10
2018-09-23T07:56:07.950Z,14.00
2018-09-23T07:58:41.852Z,14.00
2018-09-23T08:01:11.433Z,14.10
2018-09-23T08:03:42.794Z,14.10
2018-09-23T08:06:12.835Z,14.10
2018-09-23T08:08:46.583Z,14.10
2018-09-23T08:11:16.384Z,14.10
2018-09-23T08:13:53.821Z,14.10
2018-09-23T08:16:22.896Z,14.20
2018-09-23T08:18:53.856Z,14.30
2018-09-23T08:21:23.389Z,14.30
2018-09-23T08:23:55.580Z,14.30
2018-09-23T08:26:25.947Z,14.30
2018-09-23T08:28:58.815Z,14.30
2018-09-23T08:31:28.449Z,14.30
2018-09-23T08:34:01.415Z,14.30
2018-09-23T08:36:30.982Z,14.30
2018-09-23T08:39:08.132Z,14.40
2018-09-23T08:41:37.865Z,14.40
2018-09-23T08:46:43.071Z,14.40
2018-09-23T08:49:13.040Z,14.40
2018-09-23T08:51:43.213Z,14.40
2018-09-23T08:54:13.898Z,14.50
2018-09-23T08:56:43.790Z,14.40
2018-09-23T08:59:16.246Z,14.50
2018-09-23T09:01:45.709Z,14.60
2018-09-23T09:04:19.467Z,14.70
2018-09-23T09:06:51.357Z,14.70
2018-09-23T09:09:21.754Z,14.70
2018-09-23T09:11:52.699Z,14.70
2018-09-23T09:14:22.722Z,14.70
2018-09-23T09:16:52.226Z,14.70
2018-09-23T09:19:29.631Z,14.60
2018-09-23T09:21:59.627Z,14.60
2018-09-23T09:24:29.318Z,14.60
2018-09-23T09:27:03.584Z,14.60
2018-09-23T09:29:33.328Z,14.60
2018-09-23T09:32:02.856Z,14.60
2018-09-23T09:34:34.744Z,14.60
2018-09-23T09:37:04.121Z,14.70
2018-09-23T09:39:36.280Z,14.70
2018-09-23T09:42:06.624Z,14.70
2018-09-23T09:44:40.254Z,14.70
2018-09-23T09:47:10.287Z,14.80
2018-09-23T09:49:42.623Z,14.90
2018-09-23T09:52:12.050Z,14.90
2018-09-23T09:54:44.245Z,14.90
2018-09-23T09:57:17.779Z,15.00
2018-09-23T09:59:47.403Z,15.00
2018-09-23T10:02:17.098Z,15.10
2018-09-23T10:04:50.452Z,15.20
2018-09-23T10:07:21.217Z,15.20
2018-09-23T10:09:52.578Z,15.30
2018-09-23T10:12:25.384Z,15.30
2018-09-23T10:14:56.333Z,15.40
2018-09-23T10:17:27.246Z,15.40
2018-09-23T10:20:03.043Z,15.40
2018-09-23T10:22:32.855Z,15.40
2018-09-23T10:25:02.460Z,15.30
2018-09-23T10:27:32.938Z,15.30
2018-09-23T10:30:03.775Z,15.30
2018-09-23T10:32:33.266Z,15.20
2018-09-23T10:35:10.776Z,15.20
2018-09-23T10:37:40.334Z,15.20
2018-09-23T10:40:12.331Z,15.20
2018-09-23T10:42:44.350Z,15.10
2018-09-23T10:45:15.931Z,15.10
2018-09-23T10:47:45.711Z,15.00
2018-09-23T10:50:17.642Z,15.00
2018-09-23T10:52:48.314Z,14.90
2018-09-23T10:55:21.282Z,14.90
2018-09-23T10:57:51.999Z,14.80
2018-09-23T11:00:25.190Z,14.80
2018-09-23T11:02:56.270Z,14.80
2018-09-23T11:05:26.620Z,14.80
2018-09-23T11:07:56.260Z,14.80
2018-09-23T11:10:26.920Z,14.70
2018-09-23T11:12:57.227Z,14.60
2018-09-23T11:15:29.861Z,14.60
2018-09-23T11:17:59.784Z,14.50
2018-09-23T11:20:33.051Z,14.50
2018-09-23T11:23:03.462Z,14.40
2018-09-23T11:25:34.434Z,14.40
2018-09-23T11:28:04.616Z,14.40
2018-09-23T11:30:37.436Z,14.40
2018-09-23T11:33:07.126Z,14.40
2018-09-23T11:35:39.577Z,14.30
2018-09-23T11:38:09.646Z,14.30
2018-09-23T11:40:42.703Z,14.20
2018-09-23T11:43:12.915Z,14.20
2018-09-23T11:45:45.155Z,14.10
2018-09-23T11:48:14.955Z,14.00
2018-09-23T11:50:48.235Z,14.00
2018-09-23T11:53:18.207Z,13.90
2018-09-23T11:55:50.583Z,13.90
2018-09-23T11:58:22.721Z,13.80
2018-09-23T12:00:54.887Z,13.90
2018-09-23T12:03:24.748Z,13.90
2018-09-23T12:05:56.910Z,13.90
2018-09-23T12:08:26.497Z,14.00
2018-09-23T12:11:01.214Z,13.90
2018-09-23T12:13:30.949Z,13.80
2018-09-23T12:16:04.126Z,13.90
2018-09-23T12:18:33.642Z,13.90
2018-09-23T12:21:05.772Z,13.80
2018-09-23T12:23:35.329Z,13.80
2018-09-23T12:26:09.029Z,13.70
2018-09-23T12:28:38.936Z,13.70
2018-09-23T12:31:12.436Z,13.70
2018-09-23T12:33:42.958Z,13.60
2018-09-23T12:36:16.158Z,13.60
2018-09-23T12:38:46.616Z,13.60
2018-09-23T12:41:18.907Z,13.60
2018-09-23T12:43:48.283Z,13.50
2018-09-23T12:46:21.008Z,13.40
2018-09-23T12:48:52.924Z,13.40
2018-09-23T12:51:22.996Z,13.40
2018-09-23T12:53:54.955Z,13.40
2018-09-23T12:56:25.340Z,13.40
2018-09-23T12:58:54.676Z,13.40
2018-09-23T13:01:28.097Z,13.40
2018-09-23T13:03:57.657Z,13.40
2018-09-23T13:06:35.279Z,13.40
2018-09-23T13:09:05.910Z,13.30
2018-09-23T13:11:36.089Z,13.20
2018-09-23T13:14:06.064Z,13.20
2018-09-23T13:16:38.126Z,13.10
2018-09-23T13:19:07.551Z,13.20
2018-09-23T13:21:40.201Z,13.20
2018-09-23T13:24:10.439Z,13.20
2018-09-23T13:26:43.685Z,13.20
2018-09-23T13:29:16.295Z,13.30
2018-09-23T13:31:46.204Z,13.30
2018-09-23T13:34:15.736Z,13.30
2018-09-23T13:36:48.932Z,13.30
2018-09-23T13:39:19.014Z,13.30
2018-09-23T13:41:55.968Z,13.30
2018-09-23T13:44:25.493Z,13.40
2018-09-23T13:46:55.187Z,13.40
2018-09-23T13:49:24.581Z,13.40
2018-09-23T13:51:58.734Z,13.40
2018-09-23T13:54:28.582Z,13.50
2018-09-23T13:57:02.672Z,13.50
2018-09-23T13:59:32.643Z,13.50
2018-09-23T14:02:03.222Z,13.50
2018-09-23T14:04:34.072Z,13.50
2018-09-23T14:07:07.298Z,13.40
2018-09-23T14:09:37.024Z,13.40
2018-09-23T14:12:09.799Z,13.40
2018-09-23T14:14:40.625Z,13.40
2018-09-23T14:17:13.866Z,13.30
2018-09-23T14:19:43.361Z,13.30
2018-09-23T14:22:16.474Z,13.20
2018-09-23T14:24:46.869Z,13.20
2018-09-23T14:27:19.372Z,13.20
2018-09-23T14:29:48.944Z,13.10
2018-09-23T14:32:20.877Z,13.20
2018-09-23T14:34:51.000Z,13.20
2018-09-23T14:37:23.481Z,13.20
2018-09-23T14:39:53.078Z,13.10
2018-09-23T14:42:26.713Z,13.10
2018-09-23T14:44:57.450Z,13.10
2018-09-23T14:47:29.349Z,13.10
2018-09-23T14:49:58.800Z,13.00
2018-09-23T14:52:35.741Z,13.00
2018-09-23T14:55:05.346Z,13.00
2018-09-23T14:57:35.148Z,12.90
2018-09-23T15:00:05.952Z,12.90
2018-09-23T15:02:37.716Z,12.90
2018-09-23T15:05:07.898Z,12.70
2018-09-23T15:07:40.382Z,12.70
2018-09-23T15:10:10.063Z,12.70
2018-09-23T15:12:44.424Z,12.60
2018-09-23T15:15:14.625Z,12.60
2018-09-23T15:17:46.766Z,12.60
2018-09-23T15:22:49.245Z,12.70
2018-09-23T15:25:18.768Z,12.70
2018-09-23T15:27:56.081Z,12.60
2018-09-23T15:30:26.092Z,12.70
2018-09-23T15:32:55.790Z,12.70
2018-09-23T15:35:25.417Z,12.70
2018-09-23T15:37:58.938Z,12.60
2018-09-23T15:40:29.981Z,12.60
2018-09-23T15:43:02.317Z,12.60
2018-09-23T15:45:33.877Z,12.50
2018-09-23T15:48:05.119Z,12.50
2018-09-23T15:50:34.732Z,12.40
2018-09-23T15:53:08.037Z,12.40
2018-09-23T15:55:38.647Z,12.40
2018-09-23T15:58:11.610Z,12.40
2018-09-23T16:00:41.429Z,12.40
2018-09-23T16:03:18.753Z,12.40
2018-09-23T16:05:50.551Z,12.50
2018-09-23T16:08:20.364Z,12.40
2018-09-23T16:10:50.475Z,12.40
2018-09-23T16:13:20.947Z,12.40
2018-09-23T16:15:50.980Z,12.50
2018-09-23T16:18:22.244Z,12.50
2018-09-23T16:20:51.875Z,12.50
2018-09-23T16:23:25.401Z,12.40
2018-09-23T16:25:55.114Z,12.40
2018-09-23T16:28:27.267Z,12.40
2018-09-23T16:30:56.816Z,12.40
2018-09-23T16:33:29.508Z,12.40
2018-09-23T16:35:59.073Z,12.40
2018-09-23T16:38:32.275Z,12.30
2018-09-23T16:41:01.984Z,12.30
2018-09-23T16:43:35.198Z,12.30
2018-09-23T16:46:04.712Z,12.30
2018-09-23T16:48:38.281Z,12.30
2018-09-23T16:51:07.576Z,12.30
2018-09-23T16:53:39.980Z,12.20
2018-09-23T16:56:09.626Z,12.30
2018-09-23T16:58:42.887Z,12.20
2018-09-23T17:01:13.015Z,12.20
2018-09-23T17:03:46.924Z,12.20
2018-09-23T17:06:16.557Z,12.10
2018-09-23T17:08:49.483Z,12.10
2018-09-23T17:11:21.449Z,12.10
2018-09-23T17:13:52.488Z,12.10
2018-09-23T17:16:22.157Z,12.10
2018-09-23T17:18:59.442Z,12.10
2018-09-23T17:21:29.284Z,12.20
2018-09-23T17:24:00.067Z,12.10
2018-09-23T17:26:29.997Z,12.10
2018-09-23T17:29:00.456Z,12.00
2018-09-23T17:31:30.023Z,11.90
2018-09-23T17:34:03.793Z,11.90
2018-09-23T17:36:33.143Z,11.90
2018-09-23T17:39:11.439Z,11.90
2018-09-23T17:41:41.309Z,11.80
2018-09-23T17:44:10.907Z,11.80
2018-09-23T17:46:40.814Z,11.80
2018-09-23T17:49:14.611Z,11.80
2018-09-23T17:51:45.168Z,11.80
2018-09-23T17:54:17.079Z,11.70
2018-09-23T17:56:46.806Z,11.60
2018-09-23T17:59:18.861Z,11.60
2018-09-23T18:01:49.804Z,11.60
2018-09-23T18:04:22.706Z,11.60
2018-09-23T18:06:52.209Z,11.60
2018-09-23T18:09:24.130Z,11.60
2018-09-23T18:11:54.167Z,11.60
2018-09-23T18:14:26.282Z,11.50
2018-09-23T18:16:55.751Z,11.40
2018-09-23T18:19:28.471Z,11.40
2018-09-23T18:21:58.202Z,11.40
2018-09-23T18:24:32.397Z,11.40
2018-09-23T18:27:02.359Z,11.50
2018-09-23T18:29:33.505Z,11.50
2018-09-23T18:32:02.926Z,11.40
2018-09-23T18:34:36.284Z,11.40
2018-09-23T18:37:05.885Z,11.40
2018-09-23T18:39:39.292Z,11.40
2018-09-23T18:42:09.253Z,11.40
2018-09-23T18:44:41.359Z,11.40
2018-09-23T18:47:11.653Z,11.40
2018-09-23T18:49:43.949Z,11.40
2018-09-23T18:52:14.349Z,11.40
2018-09-23T18:57:29.129Z,11.40
2018-09-23T18:59:58.892Z,11.40
2018-09-23T19:02:28.453Z,11.40
2018-09-23T19:04:57.933Z,11.50
2018-09-23T19:07:27.611Z,11.40
2018-09-23T19:09:56.945Z,11.40
2018-09-23T19:12:26.496Z,11.40
2018-09-23T19:14:58.504Z,11.40
2018-09-23T19:17:27.894Z,11.30
2018-09-23T19:20:06.456Z,11.30
2018-09-23T19:22:41.238Z,11.40
2018-09-23T19:25:11.120Z,11.30
2018-09-23T19:27:40.781Z,11.40
2018-09-23T19:30:10.718Z,11.30
2018-09-23T19:32:41.509Z,11.30
2018-09-23T19:35:11.078Z,11.30
2018-09-23T19:37:41.275Z,11.30
2018-09-23T19:40:14.978Z,11.30
2018-09-23T19:42:45.588Z,11.30
2018-09-23T19:45:17.438Z,11.30
2018-09-23T19:47:48.025Z,11.30
2018-09-23T19:50:21.253Z,11.40
2018-09-23T19:52:51.502Z,11.30
2018-09-23T19:55:22.184Z,11.30
2018-09-23T19:57:52.975Z,11.30
2018-09-23T20:00:24.426Z,11.30
2018-09-23T20:03:00.031Z,11.30
2018-09-23T20:05:31.045Z,11.20
2018-09-23T20:08:01.453Z,11.20
2018-09-23T20:10:31.250Z,11.20
2018-09-23T20:13:01.881Z,11.20
2018-09-23T20:15:32.067Z,11.20
2018-09-23T20:18:01.632Z,11.30
2018-09-23T20:20:34.276Z,11.30
2018-09-23T20:23:04.566Z,11.30
2018-09-23T20:25:36.917Z,11.30
2018-09-23T20:28:06.888Z,11.30
2018-09-23T20:30:39.312Z,11.40
2018-09-23T20:33:09.150Z,11.40
2018-09-23T20:35:41.679Z,11.40
2018-09-23T20:38:12.930Z,11.40
2018-09-23T20:40:43.387Z,11.40
2018-09-23T20:43:13.050Z,11.40
2018-09-23T20:45:46.405Z,11.40
2018-09-23T20:48:16.209Z,11.40
2018-09-23T20:50:52.055Z,11.40
2018-09-23T20:53:21.783Z,11.40
2018-09-23T20:55:52.563Z,11.40
2018-09-23T20:58:22.786Z,11.40
2018-09-23T21:00:54.964Z,11.40
2018-09-23T21:03:24.548Z,11.30
2018-09-23T21:05:57.692Z,11.30
2018-09-23T21:08:27.508Z,11.40
2018-09-23T21:11:02.063Z,11.40
2018-09-23T21:13:31.644Z,11.40
2018-09-23T21:16:04.066Z,11.30
2018-09-23T21:18:33.726Z,11.40
2018-09-23T21:21:07.009Z,11.40
2018-09-23T21:23:36.624Z,11.30
2018-09-23T21:26:09.917Z,11.30
2018-09-23T21:28:40.150Z,11.30
2018-09-23T21:31:14.708Z,11.40
2018-09-23T21:33:44.283Z,11.40
2018-09-23T21:36:15.863Z,11.40
2018-09-23T21:38:46.631Z,11.30
2018-09-23T21:41:18.741Z,11.40
2018-09-23T21:43:48.435Z,11.30
2018-09-23T21:46:21.808Z,11.30
2018-09-23T21:48:51.359Z,11.30
2018-09-23T21:51:24.351Z,11.30
2018-09-23T21:53:54.227Z,11.30
2018-09-23T21:56:26.761Z,11.30
2018-09-23T21:58:56.252Z,11.30
2018-09-23T22:01:28.466Z,11.40
2018-09-23T22:03:57.914Z,11.30
2018-09-23T22:06:31.168Z,11.30
2018-09-23T22:09:01.692Z,11.40
2018-09-23T22:11:33.960Z,11.40
2018-09-23T22:14:03.205Z,11.40
2018-09-23T22:16:40.149Z,11.40
2018-09-23T22:19:09.716Z,11.40
2018-09-23T22:21:39.288Z,11.40
2018-09-23T22:24:09.275Z,11.40
2018-09-23T22:26:42.104Z,11.40
2018-09-23T22:29:11.869Z,11.40
2018-09-23T22:31:43.058Z,11.40
2018-09-23T22:34:12.505Z,11.40
2018-09-23T22:36:47.176Z,11.40
2018-09-23T22:39:17.056Z,11.40
2018-09-23T22:41:49.645Z,11.40
2018-09-23T22:44:19.161Z,11.30
2018-09-23T22:46:53.112Z,11.30
2018-09-23T22:49:22.977Z,11.20
2018-09-23T22:51:55.834Z,11.20
2018-09-23T22:54:25.326Z,11.30
2018-09-23T22:56:57.521Z,11.20
2018-09-23T22:59:26.826Z,11.20
2018-09-23T23:02:01.319Z,11.20
2018-09-23T23:04:31.193Z,11.20
2018-09-23T23:07:04.338Z,11.20
2018-09-23T23:09:33.720Z,11.10
2018-09-23T23:12:07.813Z,11.10
2018-09-23T23:14:38.148Z,11.10
2018-09-23T23:17:11.174Z,11.10
2018-09-23T23:19:40.707Z,11.00
2018-09-23T23:22:15.184Z,11.00
2018-09-23T23:24:44.754Z,11.10
2018-09-23T23:27:17.075Z,11.00
2018-09-23T23:29:46.971Z,11.00
2018-09-23T23:32:18.370Z,10.90
2018-09-23T23:34:48.005Z,10.90
2018-09-23T23:37:21.852Z,11.00
2018-09-23T23:39:51.728Z,11.00
2018-09-23T23:42:23.534Z,11.00
2018-09-23T23:44:53.061Z,11.00
2018-09-23T23:47:26.939Z,11.00
2018-09-23T23:49:56.423Z,11.10
2018-09-23T23:52:28.447Z,11.00
2018-09-23T23:54:58.354Z,10.90
2018-09-23T23:57:31.137Z,10.90
